createdAt,value
2023-02-11T00:00:16.188Z,16.48
2023-02-11T00:01:37.010Z,16.27
2023-02-11T00:02:39.060Z,17.30
2023-02-11T00:03:41.072Z,16.40
2023-02-11T00:04:43.056Z,16.83
2023-02-11T00:05:45.018Z,17.42
2023-02-11T00:06:47.025Z,16.75
2023-02-11T00:07:49.036Z,16.60
2023-02-11T00:08:51.157Z,13.05
2023-02-11T00:09:53.155Z,14.30
2023-02-11T00:10:56.865Z,16.05
2023-02-11T00:11:58.891Z,18.20
2023-02-11T00:13:00.910Z,17.47
2023-02-11T00:14:06.720Z,16.95
2023-02-11T00:15:09.354Z,16.20
2023-02-11T00:16:14.105Z,17.42
2023-02-11T00:17:16.891Z,16.45
2023-02-11T00:18:18.858Z,17.90
2023-02-11T00:19:20.873Z,14.90
2023-02-11T00:20:22.872Z,15.75
2023-02-11T00:21:26.368Z,14.60
2023-02-11T00:22:28.551Z,15.02
2023-02-11T00:23:31.438Z,16.37
2023-02-11T00:24:33.455Z,16.65
2023-02-11T00:25:40.743Z,16.08
2023-02-11T00:26:42.756Z,14.65
2023-02-11T00:27:44.701Z,15.98
2023-02-11T00:28:49.178Z,16.33
2023-02-11T00:29:51.219Z,16.00
2023-02-11T00:30:58.083Z,17.27
2023-02-11T00:32:05.279Z,17.35
2023-02-11T00:33:07.461Z,17.27
2023-02-11T00:34:09.510Z,14.13
2023-02-11T00:35:11.482Z,15.75
2023-02-11T00:36:17.790Z,15.05
2023-02-11T00:37:22.479Z,15.38
2023-02-11T00:38:24.430Z,14.52
2023-02-11T00:39:26.955Z,14.02
2023-02-11T00:40:28.881Z,16.00
2023-02-11T00:41:31.340Z,14.27
2023-02-11T00:42:35.741Z,16.20
2023-02-11T00:43:37.902Z,15.48
2023-02-11T00:44:40.000Z,16.33
2023-02-11T00:45:42.010Z,15.23
2023-02-11T00:46:44.199Z,13.10
2023-02-11T00:47:46.357Z,12.10
2023-02-11T00:48:48.715Z,12.77
2023-02-11T00:49:50.640Z,12.40
2023-02-11T00:50:52.664Z,14.60
2023-02-11T00:51:54.661Z,14.15
2023-02-11T00:52:56.679Z,13.65
2023-02-11T00:53:58.678Z,12.68
2023-02-11T00:55:00.615Z,11.97
2023-02-11T00:56:04.795Z,13.93
2023-02-11T00:57:06.821Z,13.07
2023-02-11T00:58:08.796Z,12.90
2023-02-11T00:59:10.801Z,12.40
2023-02-11T01:00:14.619Z,13.18
2023-02-11T01:01:16.717Z,14.45
2023-02-11T01:02:18.794Z,12.95
2023-02-11T01:03:20.911Z,11.93
2023-02-11T01:04:23.431Z,11.95
2023-02-11T01:05:27.770Z,12.03
2023-02-11T01:06:29.770Z,12.30
2023-02-11T01:07:31.803Z,11.73
2023-02-11T01:08:34.188Z,11.18
2023-02-11T01:09:38.931Z,13.65
2023-02-11T01:10:41.062Z,12.05
2023-02-11T01:11:43.927Z,9.40
2023-02-11T01:12:46.960Z,11.98
2023-02-11T01:13:50.324Z,12.82
2023-02-11T01:14:52.472Z,11.93
2023-02-11T01:15:55.322Z,11.60
2023-02-11T01:16:57.446Z,9.88
2023-02-11T01:17:59.799Z,13.23
2023-02-11T01:19:01.807Z,13.00
2023-02-11T01:20:05.731Z,11.77
2023-02-11T01:21:08.293Z,10.45
2023-02-11T01:22:10.312Z,11.52
2023-02-11T01:23:12.453Z,10.90
2023-02-11T01:24:14.459Z,11.55
2023-02-11T01:25:19.385Z,11.70
2023-02-11T01:26:21.399Z,10.00
2023-02-11T01:27:23.375Z,9.73
2023-02-11T01:28:27.804Z,10.07
2023-02-11T01:29:29.947Z,11.15
2023-02-11T01:30:31.996Z,10.80
2023-02-11T01:31:34.101Z,10.45
2023-02-11T01:32:36.268Z,9.98
2023-02-11T01:33:38.288Z,9.93
2023-02-11T01:34:41.424Z,9.32
2023-02-11T01:35:43.448Z,8.23
2023-02-11T01:36:45.466Z,9.73
2023-02-11T01:37:47.485Z,10.20
2023-02-11T01:38:49.988Z,10.25
2023-02-11T01:39:54.310Z,10.52
2023-02-11T01:41:04.758Z,12.27
2023-02-11T01:42:07.110Z,11.27
2023-02-11T01:43:11.242Z,17.95
2023-02-11T01:44:38.024Z,18.88
2023-02-11T01:45:49.277Z,14.15
2023-02-11T01:46:51.635Z,12.95
2023-02-11T01:47:54.466Z,11.07
2023-02-11T01:49:09.715Z,10.65
2023-02-11T01:50:11.764Z,10.05
2023-02-11T01:51:21.046Z,10.23
2023-02-11T01:52:28.668Z,9.82
2023-02-11T01:53:51.067Z,12.52
2023-02-11T01:55:15.780Z,9.60
2023-02-11T01:56:37.818Z,10.93
2023-02-11T01:57:44.856Z,10.88
2023-02-11T01:58:49.242Z,11.70
2023-02-11T02:00:04.535Z,13.97
2023-02-11T02:01:20.396Z,16.42
2023-02-11T02:02:29.095Z,17.55
2023-02-11T02:03:36.508Z,20.50
2023-02-11T02:05:00.014Z,20.80
2023-02-11T02:06:26.867Z,23.30
2023-02-11T02:07:37.463Z,22.70
2023-02-11T02:08:44.320Z,21.65
2023-02-11T02:09:52.544Z,23.83
2023-02-11T02:10:56.613Z,22.52
2023-02-11T02:11:58.684Z,21.53
2023-02-11T02:13:01.063Z,21.40
2023-02-11T02:14:04.433Z,21.63
2023-02-11T02:15:23.471Z,19.52
2023-02-11T02:16:34.341Z,20.30
2023-02-11T02:17:47.340Z,23.65
2023-02-11T02:19:20.192Z,20.52
2023-02-11T02:20:49.536Z,21.08
2023-02-11T02:22:52.997Z,19.98
2023-02-11T02:23:57.878Z,20.60
2023-02-11T02:25:17.912Z,18.90
2023-02-11T02:26:30.752Z,19.33
2023-02-11T02:28:12.452Z,18.98
2023-02-11T02:29:45.267Z,16.00
2023-02-11T02:31:09.985Z,17.98
2023-02-11T02:32:38.898Z,20.45
2023-02-11T02:33:56.495Z,17.40
2023-02-11T02:35:24.176Z,17.92
2023-02-11T02:36:38.359Z,19.70
2023-02-11T02:37:58.280Z,19.55
2023-02-11T02:39:21.582Z,17.90
2023-02-11T02:40:28.576Z,18.65
2023-02-11T02:41:33.732Z,19.50
2023-02-11T02:42:36.227Z,17.73
2023-02-11T02:43:42.995Z,18.30
2023-02-11T02:44:49.930Z,18.55
2023-02-11T02:45:52.317Z,17.58
2023-02-11T02:46:54.425Z,19.27
2023-02-11T02:47:56.864Z,16.85
2023-02-11T02:48:59.665Z,17.17
2023-02-11T02:50:01.933Z,18.57
2023-02-11T02:51:23.928Z,17.92
2023-02-11T02:52:44.765Z,17.67
2023-02-11T02:54:07.219Z,19.60
2023-02-11T02:55:17.529Z,17.85
2023-02-11T02:56:42.739Z,19.50
2023-02-11T02:58:01.825Z,16.70
2023-02-11T02:59:06.594Z,18.33
2023-02-11T03:00:08.593Z,15.50
2023-02-11T03:01:19.953Z,21.23
2023-02-11T03:02:33.874Z,17.07
2023-02-11T03:03:49.793Z,19.25
2023-02-11T03:05:01.854Z,21.67
2023-02-11T03:06:15.399Z,19.90
2023-02-11T03:07:40.154Z,19.00
2023-02-11T03:09:09.648Z,19.33
2023-02-11T03:10:25.496Z,17.63
2023-02-11T03:11:29.464Z,16.17
2023-02-11T03:12:33.419Z,17.55
2023-02-11T03:13:37.855Z,17.05
2023-02-11T03:14:41.191Z,13.87
2023-02-11T03:15:45.966Z,16.75
2023-02-11T03:16:50.194Z,17.10
2023-02-11T03:17:56.460Z,16.52
2023-02-11T03:19:15.941Z,18.10
2023-02-11T03:20:21.876Z,17.10
2023-02-11T03:21:25.389Z,15.82
2023-02-11T03:22:53.785Z,18.15
2023-02-11T03:24:00.928Z,17.40
2023-02-11T03:25:03.424Z,16.52
2023-02-11T03:26:11.512Z,15.80
2023-02-11T03:27:25.976Z,15.68
2023-02-11T03:28:45.820Z,14.98
2023-02-11T03:29:59.119Z,16.58
2023-02-11T03:31:12.932Z,16.33
2023-02-11T03:32:40.477Z,16.17
2023-02-11T03:33:49.368Z,15.27
2023-02-11T03:35:26.822Z,16.55
2023-02-11T03:37:07.388Z,16.48
2023-02-11T03:38:18.410Z,16.77
2023-02-11T03:39:25.755Z,19.77
2023-02-11T03:40:32.584Z,16.80
2023-02-11T03:41:35.885Z,15.15
2023-02-11T03:42:49.723Z,12.20
2023-02-11T03:43:55.901Z,13.10
2023-02-11T03:45:04.120Z,13.13
2023-02-11T03:46:06.847Z,13.60
2023-02-11T03:47:12.514Z,13.98
2023-02-11T03:48:28.534Z,15.02
2023-02-11T03:49:33.600Z,14.00
2023-02-11T03:50:37.438Z,14.87
2023-02-11T03:51:40.274Z,13.98
2023-02-11T03:52:42.644Z,13.88
2023-02-11T03:53:47.132Z,15.15
2023-02-11T03:54:54.520Z,15.02
2023-02-11T03:56:00.037Z,15.10
2023-02-11T03:57:03.984Z,14.57
2023-02-11T03:58:06.491Z,16.75
2023-02-11T03:59:08.734Z,16.10
2023-02-11T04:00:11.822Z,16.55
2023-02-11T04:01:14.475Z,16.20
2023-02-11T04:02:16.690Z,16.67
2023-02-11T04:03:19.154Z,13.23
2023-02-11T04:04:21.236Z,13.20
2023-02-11T04:05:23.209Z,14.32
2023-02-11T04:06:25.270Z,13.23
2023-02-11T04:07:27.558Z,13.57
2023-02-11T04:08:29.535Z,16.88
2023-02-11T04:09:31.540Z,13.82
2023-02-11T04:10:33.495Z,14.05
2023-02-11T04:11:35.505Z,13.40
2023-02-11T04:12:37.431Z,13.27
2023-02-11T04:13:39.378Z,14.02
2023-02-11T04:14:41.367Z,15.02
2023-02-11T04:15:43.340Z,16.08
2023-02-11T04:16:45.411Z,15.05
2023-02-11T04:17:47.505Z,15.05
2023-02-11T04:18:49.530Z,14.48
2023-02-11T04:19:51.664Z,14.52
2023-02-11T04:20:53.645Z,16.60
2023-02-11T04:21:55.639Z,16.40
2023-02-11T04:22:57.622Z,17.02
2023-02-11T04:23:59.638Z,16.27
2023-02-11T04:25:01.625Z,16.83
2023-02-11T04:26:04.203Z,16.50
2023-02-11T04:27:06.231Z,16.75
2023-02-11T04:28:08.198Z,22.50
2023-02-11T04:29:10.327Z,15.65
2023-02-11T04:30:13.025Z,16.13
2023-02-11T04:31:15.019Z,17.73
2023-02-11T04:32:17.181Z,16.53
2023-02-11T04:33:19.147Z,16.20
2023-02-11T04:34:21.982Z,16.67
2023-02-11T04:35:24.018Z,16.40
2023-02-11T04:36:26.024Z,16.92
2023-02-11T04:37:28.010Z,18.67
2023-02-11T04:38:30.056Z,17.42
2023-02-11T04:39:32.205Z,18.45
2023-02-11T04:40:34.200Z,17.60
2023-02-11T04:41:36.224Z,18.17
2023-02-11T04:42:38.301Z,17.37
2023-02-11T04:43:40.303Z,18.40
2023-02-11T04:44:42.272Z,19.80
2023-02-11T04:45:44.235Z,15.85
2023-02-11T04:46:46.299Z,17.27
2023-02-11T04:47:48.267Z,17.52
2023-02-11T04:48:50.356Z,16.70
2023-02-11T04:49:52.323Z,16.45
2023-02-11T04:50:54.281Z,18.73
2023-02-11T04:51:56.281Z,16.50
2023-02-11T04:52:58.331Z,17.73
2023-02-11T04:54:00.284Z,15.20
2023-02-11T04:55:02.251Z,15.57
2023-02-11T04:56:04.501Z,17.30
2023-02-11T04:57:06.501Z,16.25
2023-02-11T04:58:08.529Z,15.38
2023-02-11T04:59:11.558Z,18.52
2023-02-11T05:00:14.220Z,17.35
2023-02-11T05:01:17.332Z,17.80
2023-02-11T05:02:19.315Z,15.88
2023-02-11T05:03:21.402Z,15.20
2023-02-11T05:04:23.563Z,15.43
2023-02-11T05:05:25.527Z,16.45
2023-02-11T05:06:27.690Z,16.02
2023-02-11T05:07:29.734Z,16.33
2023-02-11T05:08:32.018Z,15.70
2023-02-11T05:09:33.952Z,15.77
2023-02-11T05:10:36.389Z,15.77
2023-02-11T05:11:39.525Z,14.32
2023-02-11T05:12:41.475Z,18.33
2023-02-11T05:13:43.693Z,16.17
2023-02-11T05:14:45.956Z,16.63
2023-02-11T05:15:48.226Z,16.73
2023-02-11T05:16:50.432Z,13.95
2023-02-11T05:17:52.812Z,14.38
2023-02-11T05:18:55.850Z,15.45
2023-02-11T05:19:57.869Z,13.68
2023-02-11T05:20:59.794Z,14.38
2023-02-11T05:22:03.539Z,15.30
2023-02-11T05:23:05.664Z,14.40
2023-02-11T05:24:07.939Z,16.20
2023-02-11T05:25:09.914Z,16.60
2023-02-11T05:26:12.925Z,13.73
2023-02-11T05:27:14.981Z,15.85
2023-02-11T05:28:17.097Z,17.77
2023-02-11T05:29:20.072Z,16.23
2023-02-11T05:30:22.388Z,15.27
2023-02-11T05:31:24.386Z,14.63
2023-02-11T05:32:26.473Z,13.50
2023-02-11T05:33:28.613Z,16.15
2023-02-11T05:34:30.589Z,12.87
2023-02-11T05:35:32.667Z,14.57
2023-02-11T05:36:34.658Z,14.50
2023-02-11T05:37:36.837Z,14.77
2023-02-11T05:38:39.406Z,16.10
2023-02-11T05:39:41.433Z,13.75
2023-02-11T05:40:44.036Z,13.35
2023-02-11T05:41:46.218Z,15.40
2023-02-11T05:42:48.314Z,15.55
2023-02-11T05:43:53.876Z,12.63
2023-02-11T05:44:55.919Z,12.00
2023-02-11T05:45:58.033Z,12.75
2023-02-11T05:47:00.144Z,12.23
2023-02-11T05:48:02.083Z,13.32
2023-02-11T05:49:04.352Z,14.00
2023-02-11T05:50:06.643Z,13.43
2023-02-11T05:51:08.574Z,13.15
2023-02-11T05:52:10.513Z,14.90
2023-02-11T05:53:12.688Z,12.63
2023-02-11T05:54:14.783Z,12.00
2023-02-11T05:55:17.105Z,11.70
2023-02-11T05:56:19.240Z,12.52
2023-02-11T05:57:21.205Z,13.73
2023-02-11T05:58:23.188Z,12.13
2023-02-11T05:59:25.161Z,13.27
2023-02-11T06:00:27.376Z,15.70
2023-02-11T06:01:29.586Z,12.27
2023-02-11T06:02:31.637Z,11.93
2023-02-11T06:03:33.679Z,12.88
2023-02-11T06:04:36.270Z,12.10
2023-02-11T06:05:38.233Z,12.70
2023-02-11T06:06:40.173Z,10.88
2023-02-11T06:07:42.197Z,12.85
2023-02-11T06:08:44.316Z,12.85
2023-02-11T06:09:46.297Z,11.70
2023-02-11T06:10:48.278Z,14.73
2023-02-11T06:11:50.324Z,12.63
2023-02-11T06:12:52.444Z,12.43
2023-02-11T06:13:54.386Z,12.30
2023-02-11T06:14:56.447Z,13.68
2023-02-11T06:16:00.311Z,12.60
2023-02-11T06:17:02.675Z,12.75
2023-02-11T06:18:05.139Z,16.60
2023-02-11T06:19:07.228Z,13.80
2023-02-11T06:20:10.707Z,13.68
2023-02-11T06:21:12.892Z,13.25
2023-02-11T06:22:15.049Z,14.02
2023-02-11T06:23:17.070Z,14.52
2023-02-11T06:24:33.134Z,13.68
2023-02-11T06:25:41.080Z,15.35
2023-02-11T06:26:43.067Z,21.63
2023-02-11T06:27:45.163Z,14.15
2023-02-11T06:28:47.447Z,14.40
2023-02-11T06:29:49.706Z,13.30
2023-02-11T06:30:51.759Z,13.48
2023-02-11T06:31:53.900Z,12.63
2023-02-11T06:32:56.116Z,16.75
2023-02-11T06:33:59.355Z,17.02
2023-02-11T06:35:01.407Z,14.93
2023-02-11T06:36:04.362Z,13.30
2023-02-11T06:37:06.512Z,16.40
2023-02-11T06:38:08.511Z,16.08
2023-02-11T06:39:12.249Z,17.48
2023-02-11T06:40:14.292Z,15.85
2023-02-11T06:41:18.387Z,16.38
2023-02-11T06:42:20.527Z,17.77
2023-02-11T06:43:22.759Z,17.35
2023-02-11T06:44:24.834Z,20.60
2023-02-11T06:45:26.797Z,16.27
2023-02-11T06:46:29.021Z,15.35
2023-02-11T06:47:31.068Z,16.37
2023-02-11T06:48:33.841Z,15.57
2023-02-11T06:49:35.848Z,17.77
2023-02-11T06:50:38.502Z,15.80
2023-02-11T06:51:40.539Z,19.95
2023-02-11T06:52:42.503Z,20.80
2023-02-11T06:53:46.428Z,15.02
2023-02-11T06:54:48.399Z,16.88
2023-02-11T06:55:50.609Z,16.50
2023-02-11T06:56:52.787Z,25.98
2023-02-11T06:57:54.751Z,14.30
2023-02-11T06:58:57.192Z,17.20
2023-02-11T06:59:59.187Z,14.75
2023-02-11T07:01:07.929Z,14.57
2023-02-11T07:02:11.033Z,14.43
2023-02-11T07:03:13.335Z,15.23
2023-02-11T07:04:15.539Z,13.40
2023-02-11T07:05:17.601Z,12.52
2023-02-11T07:06:22.217Z,15.25
2023-02-11T07:07:24.319Z,13.02
2023-02-11T07:08:26.316Z,13.77
2023-02-11T07:09:28.323Z,17.83
2023-02-11T07:10:30.396Z,12.98
2023-02-11T07:11:33.564Z,15.93
2023-02-11T07:12:35.603Z,22.77
2023-02-11T07:13:37.616Z,24.75
2023-02-11T07:14:40.014Z,15.88
2023-02-11T07:15:41.941Z,18.13
2023-02-11T07:16:43.898Z,13.40
2023-02-11T07:17:45.898Z,17.33
2023-02-11T07:18:49.613Z,14.33
2023-02-11T07:19:51.635Z,12.80
2023-02-11T07:20:53.698Z,24.67
2023-02-11T07:21:55.735Z,18.80
2023-02-11T07:22:58.568Z,13.68
2023-02-11T07:24:00.610Z,12.25
2023-02-11T07:25:02.587Z,12.73
2023-02-11T07:26:09.862Z,11.05
2023-02-11T07:27:11.918Z,11.38
2023-02-11T07:28:13.900Z,12.02
2023-02-11T07:29:15.890Z,13.83
2023-02-11T07:30:17.888Z,12.57
2023-02-11T07:31:23.236Z,10.15
2023-02-11T07:32:25.388Z,11.25
2023-02-11T07:33:27.348Z,12.55
2023-02-11T07:34:29.579Z,10.23
2023-02-11T07:35:31.781Z,11.18
2023-02-11T07:36:33.824Z,11.95
2023-02-11T07:37:36.652Z,10.95
2023-02-11T07:38:39.116Z,14.13
2023-02-11T07:39:41.100Z,12.13
2023-02-11T07:40:43.171Z,11.75
2023-02-11T07:41:47.857Z,11.85
2023-02-11T07:42:49.805Z,17.10
2023-02-11T07:43:52.236Z,19.05
2023-02-11T07:44:54.159Z,13.85
2023-02-11T07:45:56.132Z,14.68
2023-02-11T07:46:58.303Z,16.00
2023-02-11T07:48:00.325Z,15.75
2023-02-11T07:49:02.344Z,13.57
2023-02-11T07:50:04.531Z,15.40
2023-02-11T07:51:12.609Z,16.08
2023-02-11T07:52:14.644Z,16.42
2023-02-11T07:53:16.772Z,15.95
2023-02-11T07:54:18.788Z,17.27
2023-02-11T07:55:20.779Z,17.17
2023-02-11T07:56:23.711Z,18.90
2023-02-11T07:57:26.111Z,19.63
2023-02-11T07:58:28.052Z,20.73
2023-02-11T07:59:30.034Z,21.02
2023-02-11T08:00:32.009Z,20.23
2023-02-11T08:01:34.151Z,19.33
2023-02-11T08:02:36.115Z,20.98
2023-02-11T08:03:39.769Z,19.15
2023-02-11T08:04:41.793Z,18.90
2023-02-11T08:05:43.992Z,18.20
2023-02-11T08:06:46.159Z,18.95
2023-02-11T08:07:52.165Z,23.00
2023-02-11T08:08:54.724Z,20.75
2023-02-11T08:09:56.744Z,24.35
2023-02-11T08:10:58.882Z,23.60
2023-02-11T08:12:01.028Z,25.08
2023-02-11T08:13:03.032Z,23.35
2023-02-11T08:14:05.030Z,19.75
2023-02-11T08:15:07.253Z,21.42
2023-02-11T08:16:16.966Z,18.92
2023-02-11T08:17:19.001Z,16.63
2023-02-11T08:18:20.977Z,19.23
2023-02-11T08:19:23.450Z,19.20
2023-02-11T08:20:25.407Z,22.05
2023-02-11T08:21:28.210Z,19.80
2023-02-11T08:22:32.557Z,19.35
2023-02-11T08:23:37.383Z,17.13
2023-02-11T08:24:39.370Z,16.85
2023-02-11T08:25:41.469Z,18.70
2023-02-11T08:26:43.607Z,27.15
2023-02-11T08:27:45.515Z,19.63
2023-02-11T08:28:49.140Z,17.50
2023-02-11T08:29:51.132Z,19.33
2023-02-11T08:30:53.329Z,20.38
2023-02-11T08:31:55.605Z,23.53
2023-02-11T08:32:57.747Z,21.33
2023-02-11T08:33:59.994Z,21.90
2023-02-11T08:35:02.043Z,18.52
2023-02-11T08:36:13.412Z,18.38
2023-02-11T08:37:15.379Z,15.48
2023-02-11T08:38:17.288Z,17.55
2023-02-11T08:39:21.312Z,19.85
2023-02-11T08:40:23.548Z,16.08
2023-02-11T08:41:26.552Z,13.50
2023-02-11T08:42:28.556Z,12.53
2023-02-11T08:43:30.679Z,14.02
2023-02-11T08:44:32.675Z,13.40
2023-02-11T08:45:34.724Z,11.07
2023-02-11T08:46:36.843Z,13.50
2023-02-11T08:47:39.688Z,14.25
2023-02-11T08:48:42.134Z,14.23
2023-02-11T08:49:44.107Z,11.88
2023-02-11T08:50:46.211Z,11.32
2023-02-11T08:51:49.051Z,13.55
2023-02-11T08:52:52.460Z,10.52
2023-02-11T08:53:55.557Z,12.60
2023-02-11T08:54:57.708Z,15.02
2023-02-11T08:55:59.668Z,14.52
2023-02-11T08:57:02.005Z,12.48
2023-02-11T08:58:04.092Z,12.60
2023-02-11T08:59:07.235Z,13.27
2023-02-11T09:00:11.149Z,13.23
2023-02-11T09:01:22.699Z,13.95
2023-02-11T09:02:24.911Z,14.25
2023-02-11T09:03:27.013Z,13.75
2023-02-11T09:04:28.950Z,14.63
2023-02-11T09:05:30.893Z,13.90
2023-02-11T09:06:33.045Z,15.80
2023-02-11T09:07:34.999Z,14.13
2023-02-11T09:08:39.384Z,16.35
2023-02-11T09:09:41.416Z,13.88
2023-02-11T09:10:43.569Z,13.13
2023-02-11T09:11:46.229Z,12.32
2023-02-11T09:12:48.239Z,15.63
2023-02-11T09:13:52.593Z,13.63
2023-02-11T09:14:55.954Z,13.33
2023-02-11T09:15:59.116Z,12.18
2023-02-11T09:17:01.157Z,10.48
2023-02-11T09:18:04.841Z,12.32
2023-02-11T09:19:07.006Z,10.45
2023-02-11T09:20:10.853Z,11.50
2023-02-11T09:21:14.146Z,11.02
2023-02-11T09:22:16.077Z,12.57
2023-02-11T09:23:18.664Z,11.35
2023-02-11T09:24:20.877Z,10.68
2023-02-11T09:25:22.828Z,11.63
2023-02-11T09:26:27.156Z,9.27
2023-02-11T09:27:29.150Z,12.68
2023-02-11T09:28:31.136Z,12.07
2023-02-11T09:29:33.120Z,12.15
2023-02-11T09:30:37.385Z,14.23
2023-02-11T09:31:39.545Z,16.00
2023-02-11T09:32:41.674Z,11.27
2023-02-11T09:33:48.063Z,12.93
2023-02-11T09:34:50.076Z,12.68
2023-02-11T09:35:52.005Z,12.13
2023-02-11T09:36:54.070Z,11.10
2023-02-11T09:37:56.292Z,10.73
2023-02-11T09:38:59.948Z,11.10
2023-02-11T09:40:01.978Z,11.18
2023-02-11T09:41:07.703Z,8.90
2023-02-11T09:42:36.909Z,10.10
2023-02-11T09:43:45.251Z,11.18
2023-02-11T09:44:47.780Z,10.73
2023-02-11T09:45:50.568Z,11.73
2023-02-11T09:46:59.698Z,11.43
2023-02-11T09:48:10.662Z,10.25
2023-02-11T09:49:21.966Z,11.23
2023-02-11T09:50:34.998Z,10.05
2023-02-11T09:51:48.321Z,10.98
2023-02-11T09:53:00.421Z,10.45
2023-02-11T09:54:11.281Z,9.50
2023-02-11T09:55:19.517Z,9.43
2023-02-11T09:56:21.554Z,9.90
2023-02-11T09:57:29.373Z,8.70
2023-02-11T09:58:36.658Z,8.07
2023-02-11T09:59:40.028Z,8.65
2023-02-11T10:01:05.085Z,10.10
2023-02-11T10:02:56.608Z,9.85
2023-02-11T10:04:13.280Z,10.35
2023-02-11T10:05:25.767Z,9.93
2023-02-11T10:06:39.473Z,10.40
2023-02-11T10:07:59.095Z,11.25
2023-02-11T10:09:37.485Z,10.52
2023-02-11T10:10:45.186Z,10.68
2023-02-11T10:12:29.443Z,9.57
2023-02-11T10:13:31.367Z,13.30
2023-02-11T10:14:57.429Z,15.10
2023-02-11T10:16:04.642Z,12.60
2023-02-11T10:17:06.528Z,10.00
2023-02-11T10:18:27.369Z,11.10
2023-02-11T10:19:51.947Z,11.27
2023-02-11T10:21:31.234Z,10.23
2023-02-11T10:22:41.702Z,13.35
2023-02-11T10:23:48.730Z,11.25
2023-02-11T10:25:00.228Z,11.30
2023-02-11T10:26:02.848Z,11.35
2023-02-11T10:27:24.494Z,10.60
2023-02-11T10:28:31.203Z,11.65
2023-02-11T10:29:42.119Z,12.10
2023-02-11T10:30:52.785Z,11.35
2023-02-11T10:31:57.919Z,11.15
2023-02-11T10:33:17.967Z,11.88
2023-02-11T10:34:20.152Z,14.40
2023-02-11T10:35:24.039Z,13.73
2023-02-11T10:36:33.079Z,12.53
2023-02-11T10:37:35.053Z,14.57
2023-02-11T10:38:37.190Z,11.80
2023-02-11T10:39:40.909Z,10.10
2023-02-11T10:40:43.154Z,10.77
2023-02-11T10:41:47.200Z,11.95
2023-02-11T10:42:55.113Z,12.90
2023-02-11T10:43:59.003Z,11.57
2023-02-11T10:45:05.080Z,11.98
2023-02-11T10:46:13.481Z,10.30
2023-02-11T10:47:22.674Z,10.83
2023-02-11T10:48:42.513Z,11.73
2023-02-11T10:49:46.496Z,11.13
2023-02-11T10:50:48.759Z,11.85
2023-02-11T10:52:11.240Z,11.65
2023-02-11T10:53:22.380Z,11.82
2023-02-11T10:54:24.470Z,11.98
2023-02-11T10:55:28.783Z,11.40
2023-02-11T10:56:37.087Z,12.23
2023-02-11T10:57:49.139Z,12.30
2023-02-11T10:58:56.033Z,13.43
2023-02-11T11:00:02.120Z,12.10
2023-02-11T11:01:12.948Z,10.68
2023-02-11T11:02:35.613Z,11.32
2023-02-11T11:03:45.752Z,11.73
2023-02-11T11:04:48.618Z,11.10
2023-02-11T11:06:02.784Z,12.35
2023-02-11T11:07:15.330Z,15.65
2023-02-11T11:08:18.576Z,13.95
2023-02-11T11:09:42.986Z,13.70
2023-02-11T11:11:04.577Z,11.27
2023-02-11T11:12:06.526Z,11.05
2023-02-11T11:13:28.150Z,13.23
2023-02-11T11:14:30.109Z,12.63
2023-02-11T11:15:32.655Z,14.38
2023-02-11T11:16:36.430Z,12.52
2023-02-11T11:17:38.860Z,12.40
2023-02-11T11:18:42.051Z,12.60
2023-02-11T11:19:44.434Z,12.88
2023-02-11T11:21:05.920Z,11.32
2023-02-11T11:22:19.249Z,12.40
2023-02-11T11:23:24.512Z,13.57
2023-02-11T11:24:45.064Z,12.15
2023-02-11T11:26:01.708Z,13.60
2023-02-11T11:27:05.318Z,13.50
2023-02-11T11:28:18.053Z,14.15
2023-02-11T11:29:38.413Z,14.73
2023-02-11T11:30:43.248Z,14.57
2023-02-11T11:32:01.425Z,13.77
2023-02-11T11:33:03.663Z,12.95
2023-02-11T11:34:29.679Z,15.53
2023-02-11T11:35:34.888Z,13.00
2023-02-11T11:36:39.813Z,18.42
2023-02-11T11:37:42.367Z,14.70
2023-02-11T11:38:50.373Z,14.35
2023-02-11T11:39:59.119Z,12.98
2023-02-11T11:41:23.689Z,13.63
2023-02-11T11:42:34.009Z,13.80
2023-02-11T11:43:37.712Z,15.48
2023-02-11T11:44:39.944Z,14.85
2023-02-11T11:45:59.124Z,16.83
2023-02-11T11:47:13.411Z,13.23
2023-02-11T11:48:32.921Z,15.32
2023-02-11T11:49:47.656Z,14.20
2023-02-11T11:50:52.942Z,13.80
2023-02-11T11:52:10.250Z,13.95
2023-02-11T11:53:25.674Z,14.00
2023-02-11T11:54:29.854Z,13.13
2023-02-11T11:55:45.734Z,18.10
2023-02-11T11:56:57.765Z,14.02
2023-02-11T11:57:59.788Z,15.63
2023-02-11T11:59:09.350Z,14.60
2023-02-11T12:00:17.894Z,15.63
2023-02-11T12:01:35.426Z,15.48
2023-02-11T12:03:01.612Z,16.05
2023-02-11T12:04:09.271Z,15.25
2023-02-11T12:05:30.747Z,17.02
2023-02-11T12:07:07.979Z,15.23
2023-02-11T12:08:37.617Z,16.27
2023-02-11T12:09:51.493Z,15.85
2023-02-11T12:10:59.665Z,17.70
2023-02-11T12:12:13.371Z,15.70
2023-02-11T12:13:27.026Z,15.75
2023-02-11T12:14:35.289Z,18.08
2023-02-11T12:15:50.876Z,20.80
2023-02-11T12:17:05.779Z,16.98
2023-02-11T12:18:20.893Z,16.95
2023-02-11T12:19:41.678Z,16.73
2023-02-11T12:20:58.996Z,15.73
2023-02-11T12:22:11.243Z,16.38
2023-02-11T12:23:16.293Z,15.70
2023-02-11T12:24:18.238Z,16.67
2023-02-11T12:25:30.920Z,15.30
2023-02-11T12:26:52.475Z,17.15
2023-02-11T12:28:08.038Z,16.02
2023-02-11T12:29:44.953Z,16.67
2023-02-11T12:31:13.116Z,14.98
2023-02-11T12:32:29.212Z,17.10
2023-02-11T12:34:09.820Z,16.77
2023-02-11T12:35:26.707Z,16.85
2023-02-11T12:36:40.265Z,19.10
2023-02-11T12:37:57.997Z,18.13
2023-02-11T12:39:23.261Z,16.70
2023-02-11T12:40:43.676Z,16.42
2023-02-11T12:42:41.676Z,17.60
2023-02-11T12:43:45.225Z,18.17
2023-02-11T12:45:03.094Z,16.67
2023-02-11T12:46:42.501Z,17.70
2023-02-11T12:48:13.081Z,18.00
2023-02-11T12:49:15.083Z,16.77
2023-02-11T12:50:37.253Z,18.20
2023-02-11T12:52:03.211Z,17.83
2023-02-11T12:53:42.251Z,17.88
2023-02-11T12:54:46.978Z,20.65
2023-02-11T12:55:55.341Z,19.13
2023-02-11T12:57:36.068Z,16.52
2023-02-11T12:58:44.899Z,17.40
2023-02-11T13:00:15.483Z,18.50
2023-02-11T13:01:24.861Z,18.40
2023-02-11T13:02:49.438Z,19.05
2023-02-11T13:04:09.350Z,18.03
2023-02-11T13:05:40.643Z,16.08
2023-02-11T13:06:46.690Z,15.60
2023-02-11T13:07:52.300Z,15.48
2023-02-11T13:09:00.956Z,15.45
2023-02-11T13:10:16.302Z,16.83
2023-02-11T13:11:23.168Z,15.82
2023-02-11T13:12:45.651Z,15.63
2023-02-11T13:14:23.065Z,15.70
2023-02-11T13:15:25.979Z,14.80
2023-02-11T13:16:39.738Z,17.47
2023-02-11T13:17:52.676Z,16.55
2023-02-11T13:19:03.904Z,15.38
2023-02-11T13:20:26.274Z,14.80
2023-02-11T13:21:43.398Z,19.38
2023-02-11T13:22:57.293Z,16.73
2023-02-11T13:24:36.019Z,17.13
2023-02-11T13:25:44.327Z,16.63
2023-02-11T13:27:07.436Z,16.38
2023-02-11T13:28:22.943Z,16.13
2023-02-11T13:29:43.950Z,16.33
2023-02-11T13:30:57.865Z,17.15
2023-02-11T13:32:09.412Z,16.80
2023-02-11T13:33:19.238Z,16.92
2023-02-11T13:34:26.756Z,15.50
2023-02-11T13:35:31.506Z,15.05
2023-02-11T13:36:34.098Z,17.17
2023-02-11T13:37:39.916Z,15.80
2023-02-11T13:38:51.007Z,16.95
2023-02-11T13:40:18.938Z,17.90
2023-02-11T13:41:24.915Z,20.70
2023-02-11T13:42:28.438Z,22.52
2023-02-11T13:43:33.879Z,20.45
2023-02-11T13:44:36.134Z,18.73
2023-02-11T13:45:45.428Z,20.20
2023-02-11T13:46:54.321Z,20.77
2023-02-11T13:48:02.168Z,21.67
2023-02-11T13:49:04.181Z,22.45
2023-02-11T13:50:09.400Z,18.75
2023-02-11T13:51:15.349Z,21.38
2023-02-11T13:52:26.865Z,20.37
2023-02-11T13:53:30.133Z,20.95
2023-02-11T13:54:37.728Z,22.27
2023-02-11T13:55:42.315Z,20.42
2023-02-11T13:56:46.307Z,21.90
2023-02-11T13:58:17.410Z,21.48
2023-02-11T13:59:25.517Z,20.98
2023-02-11T14:00:36.773Z,21.25
2023-02-11T14:02:10.351Z,20.88
2023-02-11T14:03:30.988Z,21.98
2023-02-11T14:04:52.713Z,21.30
2023-02-11T14:06:30.363Z,21.80
2023-02-11T14:07:52.592Z,24.48
2023-02-11T14:09:09.963Z,20.45
2023-02-11T14:10:43.013Z,22.27
2023-02-11T14:11:49.093Z,20.50
2023-02-11T14:13:07.233Z,21.77
2023-02-11T14:14:28.076Z,22.67
2023-02-11T14:15:39.651Z,21.20
2023-02-11T14:17:00.204Z,19.15
2023-02-11T14:18:02.883Z,28.77
2023-02-11T14:19:06.319Z,21.52
2023-02-11T14:20:35.630Z,19.92
2023-02-11T14:21:46.887Z,19.80
2023-02-11T14:22:51.086Z,19.90
2023-02-11T14:23:54.572Z,21.02
2023-02-11T14:25:01.111Z,26.58
2023-02-11T14:26:43.558Z,22.25
2023-02-11T14:28:11.688Z,22.30
2023-02-11T14:29:18.065Z,22.65
2023-02-11T14:30:32.942Z,22.37